Aérodrome :
LOGIN :

S'inscrire | Disclaimer

   EN    FR    IT 

 










Légende :    VFR   VFR Marginal   IFR   IFR Intensif   IFR Très Intensif
Visi : 
Plafond : 
>= 8 km
>= 3000ft
5 à 8 km
1000 à 3000 ft
1500m à 5 km
500 à 1000 ft
800 à 1500m
200 à 500 ft
< 800m
< 200 ft
Symboles :   Orages  Brouillard  Fortes neiges  Fortes précipitations  Vent > 20 kt
SIGMETs :   Divers  Orages  Givrage  Turbulence  Onde Orograph.  Cendres Volcan.






- Altitude de l'aérodrome : 53 ft
- Code IATA : LBC


EDHL - Lübeck

DERNIER METAR :
  • 290250Z AUTO 16004KT 120V210 9999 // OVC006/// M01/M02 Q0998

METARs EXPIRÉS :
  • 290220Z AUTO 16006KT 120V210 3100 // SCT005/// BKN007/// OVC014/// M02/M02 Q0999
  • 290150Z AUTO 16006KT 110V250 4000 // BKN007/// OVC022/// M02/M02 Q0999
  • 290120Z AUTO 15005KT 070V200 4100 // FEW005/// BKN007/// OVC013/// M02/M03 Q1000
  • 290050Z AUTO 13007KT 090V200 2700 // FEW004/// SCT007/// OVC010/// M03/M03 Q1000
  • 290020Z AUTO 12006KT 080V160 1300 R07/1600D // VV/// M03/M03 Q1001
  • 282350Z AUTO 12006KT 090V160 2000 // FEW007/// OVC012/// M03/M04 Q1001
  • 282320Z AUTO 17005KT 120V240 1300 R07/2000D // VV/// M03/M05 Q1003
  • 282250Z AUTO 18004KT 140V250 9999 // FEW018/// SCT022/// OVC039/// M03/M07 Q1003
  • 282220Z AUTO 16005KT 120V210 9999 // SCT024/// BKN047/// OVC071/// M03/M07 Q1003
  • 282150Z AUTO VRB03KT 9999 // SCT024/// OVC077/// M03/M08 Q1004

Prévision TAF périmée.



MET'MAP, la Météo Aéronautique d'un coup d'oeil ! - Copyright ORBIFLY Décembre 2007 - Disclaimer

ORBIFLY MET'MAP TEAM :

Programmation & Développement : Alexandra Zaïnal
Sur une idée originale de : Baudouin d'Aumeries
Soutien technique & logistique : Manuel Goepfert
Assistance : Marc-Olivier Méhu




SOURCES & CREDITS :

   NOAA